sensor_id;sensor_type;location;lat;lon;timestamp;temperature;humidity
21039;DHT22;10678;51.002;4.786;2023-03-12T00:02:16;6.00;99.90
21039;DHT22;10678;51.002;4.786;2023-03-12T00:04:42;6.10;99.90
21039;DHT22;10678;51.002;4.786;2023-03-12T00:07:07;6.30;99.90
21039;DHT22;10678;51.002;4.786;2023-03-12T00:09:34;6.40;99.90
21039;DHT22;10678;51.002;4.786;2023-03-12T00:12:01;6.40;99.90
21039;DHT22;10678;51.002;4.786;2023-03-12T00:14:26;6.50;99.90
21039;DHT22;10678;51.002;4.786;2023-03-12T00:16:52;6.50;99.90
21039;DHT22;10678;51.002;4.786;2023-03-12T00:19:17;6.30;99.90
21039;DHT22;10678;51.002;4.786;2023-03-12T00:21:43;6.30;99.90
21039;DHT22;10678;51.002;4.786;2023-03-12T00:24:08;6.30;99.90
21039;DHT22;10678;51.002;4.786;2023-03-12T00:26:34;6.20;99.90
21039;DHT22;10678;51.002;4.786;2023-03-12T00:29:00;6.00;99.90
21039;DHT22;10678;51.002;4.786;2023-03-12T00:31:29;5.80;99.90
21039;DHT22;10678;51.002;4.786;2023-03-12T00:33:56;5.80;99.90
21039;DHT22;10678;51.002;4.786;2023-03-12T00:36:23;5.80;99.90
21039;DHT22;10678;51.002;4.786;2023-03-12T00:38:51;5.80;99.90
21039;DHT22;10678;51.002;4.786;2023-03-12T00:41:17;5.70;99.90
21039;DHT22;10678;51.002;4.786;2023-03-12T00:43:48;5.80;99.90
21039;DHT22;10678;51.002;4.786;2023-03-12T00:46:14;5.90;99.90
21039;DHT22;10678;51.002;4.786;2023-03-12T00:48:40;6.10;99.90
21039;DHT22;10678;51.002;4.786;2023-03-12T00:51:06;6.10;99.90
21039;DHT22;10678;51.002;4.786;2023-03-12T00:53:32;6.20;99.90
21039;DHT22;10678;51.002;4.786;2023-03-12T00:55:57;6.10;99.90
21039;DHT22;10678;51.002;4.786;2023-03-12T00:58:23;6.20;99.90
21039;DHT22;10678;51.002;4.786;2023-03-12T01:00:48;6.20;99.90
21039;DHT22;10678;51.002;4.786;2023-03-12T01:03:14;6.20;99.90
21039;DHT22;10678;51.002;4.786;2023-03-12T01:05:40;6.20;99.90
21039;DHT22;10678;51.002;4.786;2023-03-12T01:08:07;6.10;99.90
21039;DHT22;10678;51.002;4.786;2023-03-12T01:10:33;6.00;99.90
21039;DHT22;10678;51.002;4.786;2023-03-12T01:12:59;6.00;99.90
21039;DHT22;10678;51.002;4.786;2023-03-12T01:15:25;5.90;99.90
21039;DHT22;10678;51.002;4.786;2023-03-12T01:17:51;6.00;99.90
21039;DHT22;10678;51.002;4.786;2023-03-12T01:20:16;6.00;99.90
21039;DHT22;10678;51.002;4.786;2023-03-12T01:22:42;6.10;99.90
21039;DHT22;10678;51.002;4.786;2023-03-12T01:25:09;6.10;99.90
21039;DHT22;10678;51.002;4.786;2023-03-12T01:27:34;6.10;99.90
21039;DHT22;10678;51.002;4.786;2023-03-12T01:30:00;6.10;99.90
21039;DHT22;10678;51.002;4.786;2023-03-12T01:32:26;6.10;99.90
21039;DHT22;10678;51.002;4.786;2023-03-12T01:34:51;6.00;99.90
21039;DHT22;10678;51.002;4.786;2023-03-12T01:37:17;6.20;99.90
21039;DHT22;10678;51.002;4.786;2023-03-12T01:39:42;6.20;99.90
21039;DHT22;10678;51.002;4.786;2023-03-12T01:42:08;6.30;99.90
21039;DHT22;10678;51.002;4.786;2023-03-12T01:47:21;6.30;99.90
21039;DHT22;10678;51.002;4.786;2023-03-12T01:49:48;6.30;99.90
21039;DHT22;10678;51.002;4.786;2023-03-12T01:52:29;6.30;99.90
21039;DHT22;10678;51.002;4.786;2023-03-12T02:00:04;6.30;99.90
21039;DHT22;10678;51.002;4.786;2023-03-12T02:02:32;6.20;99.90
21039;DHT22;10678;51.002;4.786;2023-03-12T02:07:52;6.30;99.90
21039;DHT22;10678;51.002;4.786;2023-03-12T02:10:18;6.30;99.90
21039;DHT22;10678;51.002;4.786;2023-03-12T02:12:44;6.20;99.90
21039;DHT22;10678;51.002;4.786;2023-03-12T02:15:10;6.10;99.90
21039;DHT22;10678;51.002;4.786;2023-03-12T02:17:36;6.10;99.90
21039;DHT22;10678;51.002;4.786;2023-03-12T02:20:17;6.20;99.90
21039;DHT22;10678;51.002;4.786;2023-03-12T02:22:56;6.30;99.90
21039;DHT22;10678;51.002;4.786;2023-03-12T02:25:34;6.20;99.90
21039;DHT22;10678;51.002;4.786;2023-03-12T02:28:06;6.10;99.90
21039;DHT22;10678;51.002;4.786;2023-03-12T02:30:32;6.00;99.90
21039;DHT22;10678;51.002;4.786;2023-03-12T02:33:05;6.10;99.90
21039;DHT22;10678;51.002;4.786;2023-03-12T02:35:31;6.00;99.90
21039;DHT22;10678;51.002;4.786;2023-03-12T02:37:56;6.20;99.90
21039;DHT22;10678;51.002;4.786;2023-03-12T02:40:36;6.10;99.90
21039;DHT22;10678;51.002;4.786;2023-03-12T02:43:05;5.90;99.90
21039;DHT22;10678;51.002;4.786;2023-03-12T02:45:33;6.00;99.90
21039;DHT22;10678;51.002;4.786;2023-03-12T02:48:01;6.00;99.90
21039;DHT22;10678;51.002;4.786;2023-03-12T02:50:27;6.10;99.90
21039;DHT22;10678;51.002;4.786;2023-03-12T02:52:52;5.90;99.90
21039;DHT22;10678;51.002;4.786;2023-03-12T02:55:18;5.90;99.90
21039;DHT22;10678;51.002;4.786;2023-03-12T02:57:43;6.00;99.90
21039;DHT22;10678;51.002;4.786;2023-03-12T03:00:10;6.20;99.90
21039;DHT22;10678;51.002;4.786;2023-03-12T03:02:37;6.10;99.90
21039;DHT22;10678;51.002;4.786;2023-03-12T03:05:03;6.20;99.90
21039;DHT22;10678;51.002;4.786;2023-03-12T03:07:29;6.20;99.90
21039;DHT22;10678;51.002;4.786;2023-03-12T03:09:55;6.00;99.90
21039;DHT22;10678;51.002;4.786;2023-03-12T03:12:20;5.70;99.90
21039;DHT22;10678;51.002;4.786;2023-03-12T03:14:47;5.80;99.90
21039;DHT22;10678;51.002;4.786;2023-03-12T03:17:13;5.80;99.90
21039;DHT22;10678;51.002;4.786;2023-03-12T03:19:39;5.80;99.90
21039;DHT22;10678;51.002;4.786;2023-03-12T03:22:04;5.80;99.90
21039;DHT22;10678;51.002;4.786;2023-03-12T03:24:30;5.80;99.90
21039;DHT22;10678;51.002;4.786;2023-03-12T03:26:56;5.90;99.90
21039;DHT22;10678;51.002;4.786;2023-03-12T03:29:21;6.00;99.90
21039;DHT22;10678;51.002;4.786;2023-03-12T03:31:47;6.00;99.90
21039;DHT22;10678;51.002;4.786;2023-03-12T03:34:12;6.10;99.90
21039;DHT22;10678;51.002;4.786;2023-03-12T03:36:38;6.00;99.90
21039;DHT22;10678;51.002;4.786;2023-03-12T03:39:04;5.90;99.90
21039;DHT22;10678;51.002;4.786;2023-03-12T03:41:30;6.10;99.90
21039;DHT22;10678;51.002;4.786;2023-03-12T03:43:57;6.30;99.90
21039;DHT22;10678;51.002;4.786;2023-03-12T03:46:23;6.30;99.90
21039;DHT22;10678;51.002;4.786;2023-03-12T03:48:49;6.00;99.90
21039;DHT22;10678;51.002;4.786;2023-03-12T03:51:15;6.00;99.90
21039;DHT22;10678;51.002;4.786;2023-03-12T03:53:41;5.90;99.90
21039;DHT22;10678;51.002;4.786;2023-03-12T03:56:09;6.10;99.90
21039;DHT22;10678;51.002;4.786;2023-03-12T03:58:34;6.20;99.90
21039;DHT22;10678;51.002;4.786;2023-03-12T04:01:00;6.10;99.90
21039;DHT22;10678;51.002;4.786;2023-03-12T04:03:26;5.80;99.90
21039;DHT22;10678;51.002;4.786;2023-03-12T04:05:59;5.80;99.90
21039;DHT22;10678;51.002;4.786;2023-03-12T04:08:26;6.00;99.90
21039;DHT22;10678;51.002;4.786;2023-03-12T04:10:52;5.90;99.90
21039;DHT22;10678;51.002;4.786;2023-03-12T04:13:18;5.90;99.90
21039;DHT22;10678;51.002;4.786;2023-03-12T04:15:48;5.80;99.90
21039;DHT22;10678;51.002;4.786;2023-03-12T04:18:14;5.90;99.90
21039;DHT22;10678;51.002;4.786;2023-03-12T04:20:40;6.00;99.90
21039;DHT22;10678;51.002;4.786;2023-03-12T04:23:06;6.00;99.90
21039;DHT22;10678;51.002;4.786;2023-03-12T04:25:32;6.20;99.90
21039;DHT22;10678;51.002;4.786;2023-03-12T04:27:57;6.10;99.90
21039;DHT22;10678;51.002;4.786;2023-03-12T04:30:23;6.20;99.90
21039;DHT22;10678;51.002;4.786;2023-03-12T04:32:49;6.20;99.90
21039;DHT22;10678;51.002;4.786;2023-03-12T04:35:14;6.20;99.90
21039;DHT22;10678;51.002;4.786;2023-03-12T04:37:40;6.20;99.90
21039;DHT22;10678;51.002;4.786;2023-03-12T04:40:06;6.30;99.90
21039;DHT22;10678;51.002;4.786;2023-03-12T04:42:34;6.30;99.90
21039;DHT22;10678;51.002;4.786;2023-03-12T04:45:00;6.30;99.90
21039;DHT22;10678;51.002;4.786;2023-03-12T04:47:26;6.30;99.90
21039;DHT22;10678;51.002;4.786;2023-03-12T04:49:51;6.30;99.90
21039;DHT22;10678;51.002;4.786;2023-03-12T04:52:17;6.30;99.90
21039;DHT22;10678;51.002;4.786;2023-03-12T04:54:43;6.20;99.90
21039;DHT22;10678;51.002;4.786;2023-03-12T04:57:09;6.30;99.90
21039;DHT22;10678;51.002;4.786;2023-03-12T04:59:34;6.30;99.90
21039;DHT22;10678;51.002;4.786;2023-03-12T05:02:00;6.30;99.90
21039;DHT22;10678;51.002;4.786;2023-03-12T05:04:26;6.50;99.90
21039;DHT22;10678;51.002;4.786;2023-03-12T05:06:51;6.50;99.90
21039;DHT22;10678;51.002;4.786;2023-03-12T05:09:17;6.40;99.90
21039;DHT22;10678;51.002;4.786;2023-03-12T05:11:42;6.40;99.90
21039;DHT22;10678;51.002;4.786;2023-03-12T05:14:15;6.40;99.90
21039;DHT22;10678;51.002;4.786;2023-03-12T05:16:41;6.30;99.90
21039;DHT22;10678;51.002;4.786;2023-03-12T05:19:06;6.40;99.90
21039;DHT22;10678;51.002;4.786;2023-03-12T05:21:32;6.40;99.90
21039;DHT22;10678;51.002;4.786;2023-03-12T05:23:58;6.40;99.90
21039;DHT22;10678;51.002;4.786;2023-03-12T05:26:26;6.40;99.90
21039;DHT22;10678;51.002;4.786;2023-03-12T05:28:52;6.40;99.90
21039;DHT22;10678;51.002;4.786;2023-03-12T05:31:19;6.30;99.90
21039;DHT22;10678;51.002;4.786;2023-03-12T05:33:45;6.30;99.90
21039;DHT22;10678;51.002;4.786;2023-03-12T05:36:12;6.40;99.90
21039;DHT22;10678;51.002;4.786;2023-03-12T05:38:38;6.40;99.90
21039;DHT22;10678;51.002;4.786;2023-03-12T05:41:04;6.60;99.90
21039;DHT22;10678;51.002;4.786;2023-03-12T05:43:30;6.50;99.90
21039;DHT22;10678;51.002;4.786;2023-03-12T05:46:01;6.50;99.90
21039;DHT22;10678;51.002;4.786;2023-03-12T05:48:28;6.50;99.90
21039;DHT22;10678;51.002;4.786;2023-03-12T05:50:54;6.50;99.90
21039;DHT22;10678;51.002;4.786;2023-03-12T05:53:19;6.50;99.90
21039;DHT22;10678;51.002;4.786;2023-03-12T05:55:45;6.50;99.90
21039;DHT22;10678;51.002;4.786;2023-03-12T05:58:11;6.50;99.90
21039;DHT22;10678;51.002;4.786;2023-03-12T06:00:36;6.50;99.90
21039;DHT22;10678;51.002;4.786;2023-03-12T06:03:05;6.50;99.90
21039;DHT22;10678;51.002;4.786;2023-03-12T06:05:33;6.60;99.90
21039;DHT22;10678;51.002;4.786;2023-03-12T06:07:59;6.70;99.90
21039;DHT22;10678;51.002;4.786;2023-03-12T06:10:25;6.80;99.90
21039;DHT22;10678;51.002;4.786;2023-03-12T06:12:51;6.70;99.90
21039;DHT22;10678;51.002;4.786;2023-03-12T06:15:17;6.60;99.90
21039;DHT22;10678;51.002;4.786;2023-03-12T06:17:42;6.80;99.90
21039;DHT22;10678;51.002;4.786;2023-03-12T06:20:08;6.90;99.90
21039;DHT22;10678;51.002;4.786;2023-03-12T06:22:34;7.00;99.90
21039;DHT22;10678;51.002;4.786;2023-03-12T06:25:00;7.00;99.90
21039;DHT22;10678;51.002;4.786;2023-03-12T06:27:25;7.20;99.90
21039;DHT22;10678;51.002;4.786;2023-03-12T06:29:51;7.10;99.90
21039;DHT22;10678;51.002;4.786;2023-03-12T06:32:17;7.10;99.90
21039;DHT22;10678;51.002;4.786;2023-03-12T06:34:42;6.90;99.90
21039;DHT22;10678;51.002;4.786;2023-03-12T06:37:08;6.90;99.90
21039;DHT22;10678;51.002;4.786;2023-03-12T06:39:34;6.90;99.90
21039;DHT22;10678;51.002;4.786;2023-03-12T06:42:00;6.90;99.90
21039;DHT22;10678;51.002;4.786;2023-03-12T06:44:25;7.10;99.90
21039;DHT22;10678;51.002;4.786;2023-03-12T06:46:51;7.20;99.90
21039;DHT22;10678;51.002;4.786;2023-03-12T06:49:17;7.20;99.90
21039;DHT22;10678;51.002;4.786;2023-03-12T06:51:42;7.20;99.90
21039;DHT22;10678;51.002;4.786;2023-03-12T06:54:08;7.30;99.90
21039;DHT22;10678;51.002;4.786;2023-03-12T06:56:33;7.40;99.90
21039;DHT22;10678;51.002;4.786;2023-03-12T06:58:59;7.50;99.90
21039;DHT22;10678;51.002;4.786;2023-03-12T07:01:25;7.60;99.90
21039;DHT22;10678;51.002;4.786;2023-03-12T07:03:50;7.50;99.90
21039;DHT22;10678;51.002;4.786;2023-03-12T07:06:21;7.60;99.90
21039;DHT22;10678;51.002;4.786;2023-03-12T07:08:47;7.60;99.90
21039;DHT22;10678;51.002;4.786;2023-03-12T07:11:14;7.60;99.90
21039;DHT22;10678;51.002;4.786;2023-03-12T07:13:40;7.80;99.90
21039;DHT22;10678;51.002;4.786;2023-03-12T07:16:06;7.90;99.90
21039;DHT22;10678;51.002;4.786;2023-03-12T07:18:32;8.00;99.90
21039;DHT22;10678;51.002;4.786;2023-03-12T07:20:58;7.90;99.90
21039;DHT22;10678;51.002;4.786;2023-03-12T07:23:24;7.90;99.90
21039;DHT22;10678;51.002;4.786;2023-03-12T07:25:50;8.00;99.90
21039;DHT22;10678;51.002;4.786;2023-03-12T07:28:16;8.00;99.90
21039;DHT22;10678;51.002;4.786;2023-03-12T07:30:43;8.10;99.90
21039;DHT22;10678;51.002;4.786;2023-03-12T07:33:14;8.20;99.90
21039;DHT22;10678;51.002;4.786;2023-03-12T07:35:40;8.30;99.90
21039;DHT22;10678;51.002;4.786;2023-03-12T07:38:06;8.40;99.90
21039;DHT22;10678;51.002;4.786;2023-03-12T07:40:32;8.50;99.90
21039;DHT22;10678;51.002;4.786;2023-03-12T07:42:59;8.50;99.90
21039;DHT22;10678;51.002;4.786;2023-03-12T07:45:24;8.60;99.90
21039;DHT22;10678;51.002;4.786;2023-03-12T07:47:50;8.80;99.90
21039;DHT22;10678;51.002;4.786;2023-03-12T07:50:17;8.90;99.90
21039;DHT22;10678;51.002;4.786;2023-03-12T07:52:43;9.00;99.90
21039;DHT22;10678;51.002;4.786;2023-03-12T07:55:09;8.90;99.90
21039;DHT22;10678;51.002;4.786;2023-03-12T07:57:37;9.00;99.90
21039;DHT22;10678;51.002;4.786;2023-03-12T08:00:04;9.10;99.90
21039;DHT22;10678;51.002;4.786;2023-03-12T08:02:32;9.10;99.90
21039;DHT22;10678;51.002;4.786;2023-03-12T08:04:58;9.30;99.90
21039;DHT22;10678;51.002;4.786;2023-03-12T08:07:24;9.30;99.90
21039;DHT22;10678;51.002;4.786;2023-03-12T08:09:50;9.40;99.90
21039;DHT22;10678;51.002;4.786;2023-03-12T08:12:15;9.30;99.90
21039;DHT22;10678;51.002;4.786;2023-03-12T08:14:41;9.50;99.90
21039;DHT22;10678;51.002;4.786;2023-03-12T08:17:07;9.60;99.90
21039;DHT22;10678;51.002;4.786;2023-03-12T08:19:33;9.50;99.90
21039;DHT22;10678;51.002;4.786;2023-03-12T08:21:58;9.60;99.90
21039;DHT22;10678;51.002;4.786;2023-03-12T08:24:24;9.70;99.90
21039;DHT22;10678;51.002;4.786;2023-03-12T08:26:49;9.80;99.90
21039;DHT22;10678;51.002;4.786;2023-03-12T08:29:15;9.90;99.90
21039;DHT22;10678;51.002;4.786;2023-03-12T08:31:41;9.90;99.90
21039;DHT22;10678;51.002;4.786;2023-03-12T08:34:07;9.90;99.90
21039;DHT22;10678;51.002;4.786;2023-03-12T08:36:33;10.00;99.90
21039;DHT22;10678;51.002;4.786;2023-03-12T08:39:00;10.10;99.90
21039;DHT22;10678;51.002;4.786;2023-03-12T08:41:25;10.10;99.90
21039;DHT22;10678;51.002;4.786;2023-03-12T08:43:51;10.10;99.90
21039;DHT22;10678;51.002;4.786;2023-03-12T08:46:16;10.20;99.90
21039;DHT22;10678;51.002;4.786;2023-03-12T08:48:42;10.30;99.90
21039;DHT22;10678;51.002;4.786;2023-03-12T08:51:08;10.30;99.90
21039;DHT22;10678;51.002;4.786;2023-03-12T08:53:34;10.60;99.90
21039;DHT22;10678;51.002;4.786;2023-03-12T08:56:01;10.60;99.90
21039;DHT22;10678;51.002;4.786;2023-03-12T08:58:28;10.90;99.90
21039;DHT22;10678;51.002;4.786;2023-03-12T09:00:54;11.00;99.90
21039;DHT22;10678;51.002;4.786;2023-03-12T09:03:20;11.20;99.90
21039;DHT22;10678;51.002;4.786;2023-03-12T09:05:47;11.20;99.90
21039;DHT22;10678;51.002;4.786;2023-03-12T09:08:13;11.50;99.90
21039;DHT22;10678;51.002;4.786;2023-03-12T09:10:39;11.90;99.90
21039;DHT22;10678;51.002;4.786;2023-03-12T09:13:06;12.00;99.90
21039;DHT22;10678;51.002;4.786;2023-03-12T09:15:32;12.10;99.90
21039;DHT22;10678;51.002;4.786;2023-03-12T09:17:58;12.20;99.90
21039;DHT22;10678;51.002;4.786;2023-03-12T09:20:24;12.40;99.90
21039;DHT22;10678;51.002;4.786;2023-03-12T09:22:50;12.40;99.90
21039;DHT22;10678;51.002;4.786;2023-03-12T09:25:16;12.40;99.90
21039;DHT22;10678;51.002;4.786;2023-03-12T09:27:46;12.60;99.90
21039;DHT22;10678;51.002;4.786;2023-03-12T09:30:17;12.90;99.90
21039;DHT22;10678;51.002;4.786;2023-03-12T09:32:43;13.00;99.90
21039;DHT22;10678;51.002;4.786;2023-03-12T09:35:10;12.80;99.90
21039;DHT22;10678;51.002;4.786;2023-03-12T09:37:36;13.10;99.90
21039;DHT22;10678;51.002;4.786;2023-03-12T09:40:03;13.20;99.90
21039;DHT22;10678;51.002;4.786;2023-03-12T09:42:51;13.20;99.90
21039;DHT22;10678;51.002;4.786;2023-03-12T09:45:21;13.40;99.90
21039;DHT22;10678;51.002;4.786;2023-03-12T09:47:53;13.80;99.90
21039;DHT22;10678;51.002;4.786;2023-03-12T09:50:34;14.10;99.90
21039;DHT22;10678;51.002;4.786;2023-03-12T09:55:41;14.20;99.90
21039;DHT22;10678;51.002;4.786;2023-03-12T09:58:33;14.40;99.90
21039;DHT22;10678;51.002;4.786;2023-03-12T10:12:01;18.30;99.90
21039;DHT22;10678;51.002;4.786;2023-03-12T10:25:31;16.60;99.90
21039;DHT22;10678;51.002;4.786;2023-03-12T10:28:19;16.00;99.90
21039;DHT22;10678;51.002;4.786;2023-03-12T10:30:58;15.40;99.90
21039;DHT22;10678;51.002;4.786;2023-03-12T10:33:39;15.60;99.90
21039;DHT22;10678;51.002;4.786;2023-03-12T10:36:37;15.50;99.90
21039;DHT22;10678;51.002;4.786;2023-03-12T10:39:04;16.50;99.90
21039;DHT22;10678;51.002;4.786;2023-03-12T10:41:32;17.00;99.90
21039;DHT22;10678;51.002;4.786;2023-03-12T10:44:02;16.50;99.90
21039;DHT22;10678;51.002;4.786;2023-03-12T10:52:15;15.70;99.90
21039;DHT22;10678;51.002;4.786;2023-03-12T10:54:43;15.10;99.90
21039;DHT22;10678;51.002;4.786;2023-03-12T10:57:10;15.00;99.90
21039;DHT22;10678;51.002;4.786;2023-03-12T10:59:39;15.10;99.90
21039;DHT22;10678;51.002;4.786;2023-03-12T11:04:57;14.70;99.90
21039;DHT22;10678;51.002;4.786;2023-03-12T11:07:29;14.60;99.90
21039;DHT22;10678;51.002;4.786;2023-03-12T11:10:23;14.60;99.90
21039;DHT22;10678;51.002;4.786;2023-03-12T11:12:59;15.00;99.90
21039;DHT22;10678;51.002;4.786;2023-03-12T11:15:37;15.20;99.90
21039;DHT22;10678;51.002;4.786;2023-03-12T11:18:35;16.00;99.90
21039;DHT22;10678;51.002;4.786;2023-03-12T11:23:33;17.20;99.90
21039;DHT22;10678;51.002;4.786;2023-03-12T11:26:19;17.20;99.90
21039;DHT22;10678;51.002;4.786;2023-03-12T11:28:51;17.20;99.90
21039;DHT22;10678;51.002;4.786;2023-03-12T11:31:24;17.10;99.90
21039;DHT22;10678;51.002;4.786;2023-03-12T11:33:52;16.70;99.90
21039;DHT22;10678;51.002;4.786;2023-03-12T11:39:16;16.20;99.90
21039;DHT22;10678;51.002;4.786;2023-03-12T11:47:23;15.80;99.90
21039;DHT22;10678;51.002;4.786;2023-03-12T11:50:02;15.70;99.90
21039;DHT22;10678;51.002;4.786;2023-03-12T11:55:41;15.10;99.90
21039;DHT22;10678;51.002;4.786;2023-03-12T12:12:03;16.30;99.90
21039;DHT22;10678;51.002;4.786;2023-03-12T12:20:45;15.50;99.90
21039;DHT22;10678;51.002;4.786;2023-03-12T12:23:17;15.50;99.90
21039;DHT22;10678;51.002;4.786;2023-03-12T12:28:53;15.00;99.90
21039;DHT22;10678;51.002;4.786;2023-03-12T12:31:39;14.80;99.90
21039;DHT22;10678;51.002;4.786;2023-03-12T12:37:21;14.90;99.90
21039;DHT22;10678;51.002;4.786;2023-03-12T12:40:53;15.20;99.90
21039;DHT22;10678;51.002;4.786;2023-03-12T12:45:36;16.70;99.90
21039;DHT22;10678;51.002;4.786;2023-03-12T12:50:56;17.00;99.90
21039;DHT22;10678;51.002;4.786;2023-03-12T12:56:38;16.10;99.90
21039;DHT22;10678;51.002;4.786;2023-03-12T12:59:39;15.70;99.90
21039;DHT22;10678;51.002;4.786;2023-03-12T13:02:19;15.60;99.90
21039;DHT22;10678;51.002;4.786;2023-03-12T13:04:45;15.60;99.90
21039;DHT22;10678;51.002;4.786;2023-03-12T13:09:38;15.50;99.90
21039;DHT22;10678;51.002;4.786;2023-03-12T13:12:27;15.60;99.90
21039;DHT22;10678;51.002;4.786;2023-03-12T13:14:55;15.90;99.90
21039;DHT22;10678;51.002;4.786;2023-03-12T13:19:49;15.90;99.90
21039;DHT22;10678;51.002;4.786;2023-03-12T13:22:38;16.10;99.90
21039;DHT22;10678;51.002;4.786;2023-03-12T13:30:55;16.70;99.90
21039;DHT22;10678;51.002;4.786;2023-03-12T13:33:41;16.60;99.90
21039;DHT22;10678;51.002;4.786;2023-03-12T13:38:57;17.00;99.90
21039;DHT22;10678;51.002;4.786;2023-03-12T13:41:46;17.00;99.90
21039;DHT22;10678;51.002;4.786;2023-03-12T13:54:43;16.30;99.90
21039;DHT22;10678;51.002;4.786;2023-03-12T13:57:33;16.30;99.90
21039;DHT22;10678;51.002;4.786;2023-03-12T14:00:03;15.80;99.90
21039;DHT22;10678;51.002;4.786;2023-03-12T14:02:33;15.60;99.90
21039;DHT22;10678;51.002;4.786;2023-03-12T14:05:08;15.50;99.90
21039;DHT22;10678;51.002;4.786;2023-03-12T14:12:57;15.40;99.90
21039;DHT22;10678;51.002;4.786;2023-03-12T14:15:32;15.60;99.90
21039;DHT22;10678;51.002;4.786;2023-03-12T14:18:03;15.40;99.90
21039;DHT22;10678;51.002;4.786;2023-03-12T14:20:36;15.20;99.90
21039;DHT22;10678;51.002;4.786;2023-03-12T14:23:05;15.00;99.90
21039;DHT22;10678;51.002;4.786;2023-03-12T14:25:42;14.80;99.90
21039;DHT22;10678;51.002;4.786;2023-03-12T14:28:22;14.70;99.90
21039;DHT22;10678;51.002;4.786;2023-03-12T14:33:17;14.30;99.90
21039;DHT22;10678;51.002;4.786;2023-03-12T14:36:11;14.30;99.90
21039;DHT22;10678;51.002;4.786;2023-03-12T14:38:43;14.30;99.90
21039;DHT22;10678;51.002;4.786;2023-03-12T14:41:18;14.70;99.90
21039;DHT22;10678;51.002;4.786;2023-03-12T14:43:45;14.80;99.90
21039;DHT22;10678;51.002;4.786;2023-03-12T14:46:21;14.90;99.90
21039;DHT22;10678;51.002;4.786;2023-03-12T14:48:52;15.00;99.90
21039;DHT22;10678;51.002;4.786;2023-03-12T14:51:24;14.90;99.90
21039;DHT22;10678;51.002;4.786;2023-03-12T14:53:51;14.70;99.90
21039;DHT22;10678;51.002;4.786;2023-03-12T14:56:26;14.40;99.90
21039;DHT22;10678;51.002;4.786;2023-03-12T14:58:53;14.20;99.90
21039;DHT22;10678;51.002;4.786;2023-03-12T15:01:25;14.30;99.90
21039;DHT22;10678;51.002;4.786;2023-03-12T15:03:54;14.30;99.90
21039;DHT22;10678;51.002;4.786;2023-03-12T15:06:36;14.30;99.90
21039;DHT22;10678;51.002;4.786;2023-03-12T15:09:05;14.30;99.90
21039;DHT22;10678;51.002;4.786;2023-03-12T15:11:34;14.30;99.90
21039;DHT22;10678;51.002;4.786;2023-03-12T15:14:11;14.30;99.90
21039;DHT22;10678;51.002;4.786;2023-03-12T15:16:40;14.30;99.90
21039;DHT22;10678;51.002;4.786;2023-03-12T15:19:12;14.30;99.90
21039;DHT22;10678;51.002;4.786;2023-03-12T15:21:38;14.40;99.90
21039;DHT22;10678;51.002;4.786;2023-03-12T15:24:05;14.60;99.90
21039;DHT22;10678;51.002;4.786;2023-03-12T15:26:32;14.70;99.90
21039;DHT22;10678;51.002;4.786;2023-03-12T15:31:48;14.40;99.90
21039;DHT22;10678;51.002;4.786;2023-03-12T15:34:27;14.40;99.90
21039;DHT22;10678;51.002;4.786;2023-03-12T15:36:56;14.20;99.90
21039;DHT22;10678;51.002;4.786;2023-03-12T15:39:33;14.00;99.90
21039;DHT22;10678;51.002;4.786;2023-03-12T15:42:13;13.80;99.90
21039;DHT22;10678;51.002;4.786;2023-03-12T15:44:46;14.00;99.90
21039;DHT22;10678;51.002;4.786;2023-03-12T15:47:17;13.80;99.90
21039;DHT22;10678;51.002;4.786;2023-03-12T15:49:55;13.80;99.90
21039;DHT22;10678;51.002;4.786;2023-03-12T15:52:40;14.00;99.90
21039;DHT22;10678;51.002;4.786;2023-03-12T15:57:47;14.00;99.90
21039;DHT22;10678;51.002;4.786;2023-03-12T16:00:18;14.00;99.90
21039;DHT22;10678;51.002;4.786;2023-03-12T16:05:18;14.00;99.90
21039;DHT22;10678;51.002;4.786;2023-03-12T16:07:45;14.00;99.90
21039;DHT22;10678;51.002;4.786;2023-03-12T16:10:15;13.90;99.90
21039;DHT22;10678;51.002;4.786;2023-03-12T16:12:42;14.00;99.90
21039;DHT22;10678;51.002;4.786;2023-03-12T16:15:24;14.10;99.90
21039;DHT22;10678;51.002;4.786;2023-03-12T16:17:50;13.80;99.90
21039;DHT22;10678;51.002;4.786;2023-03-12T16:20:16;13.90;99.90
21039;DHT22;10678;51.002;4.786;2023-03-12T16:22:43;13.90;99.90
21039;DHT22;10678;51.002;4.786;2023-03-12T16:25:09;13.80;99.90
21039;DHT22;10678;51.002;4.786;2023-03-12T16:27:36;13.80;99.90
21039;DHT22;10678;51.002;4.786;2023-03-12T16:30:09;13.80;99.90
21039;DHT22;10678;51.002;4.786;2023-03-12T16:32:36;14.00;99.90
21039;DHT22;10678;51.002;4.786;2023-03-12T16:35:08;14.10;99.90
21039;DHT22;10678;51.002;4.786;2023-03-12T16:37:35;14.10;99.90
21039;DHT22;10678;51.002;4.786;2023-03-12T16:40:01;13.90;99.90
21039;DHT22;10678;51.002;4.786;2023-03-12T16:42:26;13.90;99.90
21039;DHT22;10678;51.002;4.786;2023-03-12T16:44:52;13.80;99.90
21039;DHT22;10678;51.002;4.786;2023-03-12T16:47:17;13.60;99.90
21039;DHT22;10678;51.002;4.786;2023-03-12T16:49:43;13.50;99.90
21039;DHT22;10678;51.002;4.786;2023-03-12T16:52:20;13.40;99.90
21039;DHT22;10678;51.002;4.786;2023-03-12T16:54:49;13.50;99.90
21039;DHT22;10678;51.002;4.786;2023-03-12T16:57:41;13.40;99.90
21039;DHT22;10678;51.002;4.786;2023-03-12T17:00:10;13.30;99.90
21039;DHT22;10678;51.002;4.786;2023-03-12T17:02:37;13.30;99.90
21039;DHT22;10678;51.002;4.786;2023-03-12T17:05:03;13.20;99.90
21039;DHT22;10678;51.002;4.786;2023-03-12T17:07:29;13.20;99.90
21039;DHT22;10678;51.002;4.786;2023-03-12T17:09:54;13.20;99.90
21039;DHT22;10678;51.002;4.786;2023-03-12T17:12:32;13.10;99.90
21039;DHT22;10678;51.002;4.786;2023-03-12T17:14:58;13.10;99.90
21039;DHT22;10678;51.002;4.786;2023-03-12T17:17:24;13.10;99.90
21039;DHT22;10678;51.002;4.786;2023-03-12T17:19:50;13.10;99.90
21039;DHT22;10678;51.002;4.786;2023-03-12T17:22:17;13.00;99.90
21039;DHT22;10678;51.002;4.786;2023-03-12T17:24:43;12.90;99.90
21039;DHT22;10678;51.002;4.786;2023-03-12T17:27:12;12.90;99.90
21039;DHT22;10678;51.002;4.786;2023-03-12T17:29:37;12.90;99.90
21039;DHT22;10678;51.002;4.786;2023-03-12T17:32:03;12.90;99.90
21039;DHT22;10678;51.002;4.786;2023-03-12T17:34:29;12.80;99.90
21039;DHT22;10678;51.002;4.786;2023-03-12T17:36:54;12.70;99.90
21039;DHT22;10678;51.002;4.786;2023-03-12T17:39:20;12.70;99.90
21039;DHT22;10678;51.002;4.786;2023-03-12T17:41:45;12.40;99.90
21039;DHT22;10678;51.002;4.786;2023-03-12T17:44:11;12.50;99.90
21039;DHT22;10678;51.002;4.786;2023-03-12T17:46:39;12.70;99.90
21039;DHT22;10678;51.002;4.786;2023-03-12T17:49:04;12.50;99.90
21039;DHT22;10678;51.002;4.786;2023-03-12T17:51:30;12.40;99.90
21039;DHT22;10678;51.002;4.786;2023-03-12T17:53:55;12.40;99.90
21039;DHT22;10678;51.002;4.786;2023-03-12T17:56:21;12.50;99.90
21039;DHT22;10678;51.002;4.786;2023-03-12T17:58:47;12.50;99.90
21039;DHT22;10678;51.002;4.786;2023-03-12T18:01:13;12.50;99.90
21039;DHT22;10678;51.002;4.786;2023-03-12T18:03:39;12.50;99.90